Time;durP1;ratioP1;P1;durP2;ratioP2;P2;SDS_P1;SDS_P2;PMS_P1;PMS_P2;Temp;Humidity;BMP_temperature;BMP_pressure;BME280_temperature;BME280_humidity;BME280_pressure;Samples;Min_cycle;Max_cycle;Signal;HPM_P1;HPM_P2
2023/12/20 00:01:15;;;;;;;;;;;;;;;26.10;36.72;94376.09;5032012;28;7350;-65
2023/12/20 00:03:42;;;;;;;;;;;;;;;26.12;37.21;94362.53;5024509;28;6985;-64
2023/12/20 00:06:10;;;;;;;;;;;;;;;26.12;36.61;94364.56;5028005;28;7209;-65
2023/12/20 00:08:37;;;;;;;;;;;;;;;26.12;36.57;94373.56;5035766;28;9056;-65
2023/12/20 00:11:03;;;;;;;;;;;;;;;26.11;36.76;94365.81;5024913;28;7136;-65
2023/12/20 00:13:31;;;;;;;;;;;;;;;26.10;37.04;94359.56;5018083;28;7004;-65
2023/12/20 00:15:57;;;;;;;;;;;;;;;26.10;37.13;94359.56;5043283;28;7192;-61
2023/12/20 00:18:23;;;;;;;;;;;;;;;26.10;36.66;94359.56;5031379;28;7369;-61
2023/12/20 00:20:59;;;;;;;;;;;;;;;26.11;36.68;94369.34;5041928;28;7566;-61
2023/12/20 00:23:32;;;;;;;;;;;;;;;26.11;36.94;94374.84;5029499;28;9192;-61
2023/12/20 00:26:00;;;;;;;;;;;;;;;26.10;36.97;94378.84;5034663;28;9849;-55
2023/12/20 00:28:26;;;;;;;;;;;;;;;26.11;36.77;94382.34;5025706;28;7550;-55
2023/12/20 00:30:54;;;;;;;;;;;;;;;26.09;36.26;94393.91;5023771;28;7184;-55
2023/12/20 00:33:21;;;;;;;;;;;;;;;26.08;36.28;94388.88;5027765;28;7304;-55
2023/12/20 00:35:48;;;;;;;;;;;;;;;26.09;36.85;94380.13;5024702;28;7469;-55
2023/12/20 00:38:19;;;;;;;;;;;;;;;26.07;37.21;94381.88;5033792;28;8548;-55
2023/12/20 00:40:46;;;;;;;;;;;;;;;26.05;36.92;94363.09;5026814;28;6989;-55
2023/12/20 00:43:12;;;;;;;;;;;;;;;26.05;36.40;94371.38;5028878;28;9183;-55
2023/12/20 00:45:39;;;;;;;;;;;;;;;26.05;36.55;94356.84;5024097;28;7569;-56
2023/12/20 00:48:06;;;;;;;;;;;;;;;26.04;36.56;94345.06;5028236;28;8832;-55
2023/12/20 00:50:34;;;;;;;;;;;;;;;26.06;36.92;94345.28;5030338;28;8483;-55
2023/12/20 00:53:00;;;;;;;;;;;;;;;26.04;36.93;94345.06;5032998;28;7015;-55
2023/12/20 00:55:33;;;;;;;;;;;;;;;26.06;36.74;94353.56;5017477;28;9055;-55
2023/12/20 00:58:00;;;;;;;;;;;;;;;26.04;36.75;94356.06;5013250;28;7208;-55
2023/12/20 01:00:26;;;;;;;;;;;;;;;26.06;36.53;94353.56;5027599;28;7858;-55
2023/12/20 01:02:57;;;;;;;;;;;;;;;26.03;37.18;94343.53;5025161;28;9132;-56
2023/12/20 01:05:31;;;;;;;;;;;;;;;26.03;36.36;94332.53;5030144;28;7104;-55
2023/12/20 01:08:09;;;;;;;;;;;;;;;26.05;36.77;94346.56;5021877;28;7209;-55
2023/12/20 01:10:35;;;;;;;;;;;;;;;26.05;36.24;94352.06;5032443;28;7576;-55
2023/12/20 01:13:04;;;;;;;;;;;;;;;26.04;36.26;94345.06;5026737;28;7314;-55
2023/12/20 01:15:38;;;;;;;;;;;;;;;26.04;36.29;94350.56;5039246;28;7005;-55
2023/12/20 01:18:28;;;;;;;;;;;;;;;26.05;36.22;94356.84;5030874;28;7540;-56
2023/12/20 01:21:25;;;;;;;;;;;;;;;26.04;36.43;94356.06;5015832;28;7180;-56
2023/12/20 01:24:00;;;;;;;;;;;;;;;26.05;36.38;94352.06;5026591;28;7237;-55
2023/12/20 01:26:28;;;;;;;;;;;;;;;26.05;36.60;94348.56;5012887;28;7076;-55
2023/12/20 01:29:21;;;;;;;;;;;;;;;26.05;36.77;94340.28;5016466;28;7398;-55
2023/12/20 01:31:52;;;;;;;;;;;;;;;26.02;36.76;94333.78;4967870;28;7341;-56
2023/12/20 01:34:19;;;;;;;;;;;;;;;26.01;36.34;94334.31;4970814;28;7100;-55
2023/12/20 01:36:53;;;;;;;;;;;;;;;26.05;36.28;94340.28;4980704;28;8308;-61
2023/12/20 01:39:37;;;;;;;;;;;;;;;26.03;36.09;94346.31;4962675;28;7160;-61
2023/12/20 01:42:52;;;;;;;;;;;;;;;26.02;36.23;94339.31;4960285;28;7917;-62
2023/12/20 01:45:21;;;;;;;;;;;;;;;26.02;36.21;94339.31;4902031;29;9335;-62
2023/12/20 01:47:59;;;;;;;;;;;;;;;25.98;36.21;94327.81;4882047;29;8535;-62
2023/12/20 01:50:37;;;;;;;;;;;;;;;26.01;36.33;94329.53;4886774;29;7003;-61
2023/12/20 01:53:21;;;;;;;;;;;;;;;26.02;36.61;94336.56;4878804;29;7019;-62
2023/12/20 01:55:52;;;;;;;;;;;;;;;26.00;36.35;94339.09;4880696;29;9162;-61
2023/12/20 01:58:27;;;;;;;;;;;;;;;26.01;36.87;94337.81;4883595;29;7206;-62
2023/12/20 02:01:15;;;;;;;;;;;;;;;26.01;36.26;94350.84;4912170;29;7386;-62
2023/12/20 02:04:15;;;;;;;;;;;;;;;26.02;36.80;94353.09;4895028;29;7396;-62
2023/12/20 02:07:14;;;;;;;;;;;;;;;26.01;36.13;94346.06;4843810;29;9257;-61
2023/12/20 02:10:04;;;;;;;;;;;;;;;26.00;36.08;94346.59;4867009;29;7011;-62
2023/12/20 02:12:30;;;;;;;;;;;;;;;26.01;36.70;94335.03;4876357;29;7834;-61
2023/12/20 02:15:15;;;;;;;;;;;;;;;25.99;36.12;94326.56;4874169;29;7190;-61
2023/12/20 02:17:43;;;;;;;;;;;;;;;26.00;36.75;94333.56;4872777;29;6985;-61
2023/12/20 02:20:10;;;;;;;;;;;;;;;26.00;36.56;94322.53;4882465;29;8813;-61
2023/12/20 02:22:45;;;;;;;;;;;;;;;25.99;36.43;94332.06;4918916;28;7365;-61
2023/12/20 02:25:22;;;;;;;;;;;;;;;25.99;36.39;94332.06;4936405;28;9082;-61
2023/12/20 02:28:02;;;;;;;;;;;;;;;25.98;36.16;94338.09;4940746;28;7195;-61
2023/12/20 02:30:39;;;;;;;;;;;;;;;25.94;36.13;94330.13;4936236;28;7285;-61
2023/12/20 02:33:15;;;;;;;;;;;;;;;25.97;36.91;94326.31;4930581;29;7209;-61
2023/12/20 02:35:49;;;;;;;;;;;;;;;25.97;36.88;94329.06;4926317;29;7433;-61
2023/12/20 02:38:16;;;;;;;;;;;;;;;25.97;36.89;94328.31;4927632;29;9105;-62
2023/12/20 02:40:52;;;;;;;;;;;;;;;25.95;37.00;94326.09;4928759;29;7427;-61
2023/12/20 02:43:19;;;;;;;;;;;;;;;25.96;36.54;94324.84;5015726;28;7250;-61
2023/12/20 02:45:47;;;;;;;;;;;;;;;25.97;36.26;94333.84;5038836;28;7300;-62
2023/12/20 02:48:20;;;;;;;;;;;;;;;25.95;36.20;94328.09;5017383;28;7263;-62
2023/12/20 02:50:52;;;;;;;;;;;;;;;25.96;35.98;94326.84;5026406;28;9113;-62
2023/12/20 02:53:22;;;;;;;;;;;;;;;25.95;36.29;94336.34;5022808;28;7263;-63
2023/12/20 02:55:47;;;;;;;;;;;;;;;25.94;36.70;94338.38;5020860;28;8440;-63
2023/12/20 02:58:30;;;;;;;;;;;;;;;25.95;36.89;94352.91;5012281;28;7276;-63
2023/12/20 03:01:00;;;;;;;;;;;;;;;25.97;36.67;94353.13;5015870;28;9104;-62
2023/12/20 03:03:30;;;;;;;;;;;;;;;25.96;36.67;94355.16;5022421;28;9162;-63
2023/12/20 03:06:11;;;;;;;;;;;;;;;25.96;35.96;94366.19;5025993;28;6970;-63
2023/12/20 03:08:38;;;;;;;;;;;;;;;25.98;36.75;94369.16;5031926;28;7189;-62
2023/12/20 03:11:05;;;;;;;;;;;;;;;25.90;36.14;94365.47;5022256;28;7338;-63
2023/12/20 03:13:31;;;;;;;;;;;;;;;25.92;36.07;94368.47;5024567;28;8159;-62
2023/12/20 03:15:57;;;;;;;;;;;;;;;25.90;36.70;94357.19;5023216;28;7352;-63
2023/12/20 03:18:28;;;;;;;;;;;;;;;25.90;35.99;94370.97;5024921;28;9156;-62
2023/12/20 03:21:20;;;;;;;;;;;;;;;25.91;36.77;94369.72;5028405;28;7347;-62
2023/12/20 03:23:56;;;;;;;;;;;;;;;25.89;36.40;94377.75;4963543;28;7094;-63
2023/12/20 03:26:22;;;;;;;;;;;;;;;25.79;36.39;94373.06;4945315;28;7319;-63
2023/12/20 03:28:48;;;;;;;;;;;;;;;25.79;36.78;94384.09;4947694;28;7537;-62
2023/12/20 03:31:22;;;;;;;;;;;;;;;25.82;36.57;94383.81;4947306;28;6863;-63
2023/12/20 03:33:52;;;;;;;;;;;;;;;25.78;36.51;94383.34;4961180;28;8967;-63
2023/12/20 03:36:25;;;;;;;;;;;;;;;25.83;36.95;94376.31;4963652;28;7244;-63
2023/12/20 03:38:54;;;;;;;;;;;;;;;25.84;36.87;94380.53;4949667;28;9038;-63
2023/12/20 03:41:23;;;;;;;;;;;;;;;25.82;36.65;94388.56;4969666;28;9199;-63
2023/12/20 03:43:49;;;;;;;;;;;;;;;25.77;36.49;94376.34;4954863;28;7511;-63
2023/12/20 03:46:18;;;;;;;;;;;;;;;25.75;36.38;94372.63;4948589;28;7623;-62
2023/12/20 03:48:51;;;;;;;;;;;;;;;25.80;36.81;94374.56;4951595;28;6949;-62
2023/12/20 03:51:20;;;;;;;;;;;;;;;25.79;36.34;94376.59;4963833;28;7022;-62
2023/12/20 03:53:46;;;;;;;;;;;;;;;25.83;36.17;94368.78;4970632;28;7480;-63
2023/12/20 03:56:12;;;;;;;;;;;;;;;25.78;36.82;94357.78;4956417;28;7172;-56
2023/12/20 03:58:39;;;;;;;;;;;;;;;25.77;36.27;94364.59;4971410;28;7212;-56
2023/12/20 04:01:14;;;;;;;;;;;;;;;25.72;36.99;94355.09;5016213;28;7842;-56
2023/12/20 04:03:43;;;;;;;;;;;;;;;25.77;36.55;94350.81;5027784;28;9030;-56
2023/12/20 04:06:09;;;;;;;;;;;;;;;25.79;36.76;94362.81;5027656;28;9064;-56
2023/12/20 04:08:37;;;;;;;;;;;;;;;25.77;36.61;94365.34;5031271;28;7230;-56
2023/12/20 04:11:05;;;;;;;;;;;;;;;25.72;37.19;94362.59;5020641;28;7588;-56
2023/12/20 04:13:37;;;;;;;;;;;;;;;25.75;37.26;94372.63;5029136;28;7062;-56
2023/12/20 04:16:06;;;;;;;;;;;;;;;25.76;36.76;94374.09;5030990;28;7576;-56
2023/12/20 04:18:38;;;;;;;;;;;;;;;25.72;36.34;94373.63;5042123;28;7720;-57
2023/12/20 04:21:22;;;;;;;;;;;;;;;25.69;36.44;94382.91;5035793;28;9071;-56
2023/12/20 04:24:22;;;;;;;;;;;;;;;25.71;37.29;94385.91;5020203;28;7577;-56
2023/12/20 04:26:49;;;;;;;;;;;;;;;25.68;36.74;94386.94;4987843;28;7565;-55
2023/12/20 04:29:14;;;;;;;;;;;;;;;25.70;36.55;94387.16;4972634;28;7213;-56
2023/12/20 04:31:40;;;;;;;;;;;;;;;25.69;36.84;94391.91;4990671;28;7097;-56
2023/12/20 04:34:10;;;;;;;;;;;;;;;25.68;36.53;94403.47;4973150;28;6988;-56
2023/12/20 04:36:36;;;;;;;;;;;;;;;25.64;36.58;94406.50;4991651;28;7269;-56
2023/12/20 04:39:02;;;;;;;;;;;;;;;25.65;37.06;94407.97;4978585;28;7265;-56
2023/12/20 04:41:29;;;;;;;;;;;;;;;25.66;37.26;94409.50;4982438;28;8022;-56
2023/12/20 04:44:00;;;;;;;;;;;;;;;25.67;36.35;94405.47;4982692;28;7371;-56
2023/12/20 04:46:52;;;;;;;;;;;;;;;25.66;36.41;94409.50;4976241;28;8747;-56
2023/12/20 04:49:27;;;;;;;;;;;;;;;25.66;36.62;94409.50;4979754;28;7009;-56
2023/12/20 04:51:53;;;;;;;;;;;;;;;25.66;36.82;94409.50;4992454;28;9479;-56
2023/12/20 04:54:54;;;;;;;;;;;;;;;25.66;36.20;94419.75;4976103;28;9503;-56
2023/12/20 04:57:21;;;;;;;;;;;;;;;25.68;37.13;94423.50;4965497;28;7028;-56
2023/12/20 05:00:08;;;;;;;;;;;;;;;25.66;36.47;94428.00;4988613;28;6986;-56
2023/12/20 05:02:38;;;;;;;;;;;;;;;25.65;36.34;94427.25;5013441;28;7264;-56
2023/12/20 05:05:17;;;;;;;;;;;;;;;25.61;37.17;94424.03;5024202;28;9232;-56
2023/12/20 05:07:52;;;;;;;;;;;;;;;25.63;36.72;94426.28;5025587;28;6994;-56
2023/12/20 05:10:30;;;;;;;;;;;;;;;25.62;37.05;94430.28;5022509;28;7292;-56
2023/12/20 05:12:56;;;;;;;;;;;;;;;25.60;36.52;94433.53;5023859;28;7452;-56
2023/12/20 05:15:28;;;;;;;;;;;;;;;25.61;36.53;94439.81;5025977;28;6974;-56
2023/12/20 05:18:03;;;;;;;;;;;;;;;25.59;37.20;94437.56;5021390;28;7234;-56
2023/12/20 05:20:41;;;;;;;;;;;;;;;25.56;36.80;94438.56;5030739;28;8449;-56
2023/12/20 05:23:07;;;;;;;;;;;;;;;25.64;36.54;94441.56;5036040;28;7816;-56
2023/12/20 05:25:34;;;;;;;;;;;;;;;25.70;37.18;94439.50;5024034;28;9070;-56
2023/12/20 05:28:00;;;;;;;;;;;;;;;25.73;36.93;94438.50;5036065;28;7163;-56
2023/12/20 05:30:32;;;;;;;;;;;;;;;25.76;37.21;94440.97;5030986;28;6985;-57
2023/12/20 05:32:58;;;;;;;;;;;;;;;25.80;37.14;94441.44;5031221;28;9088;-56
2023/12/20 05:35:26;;;;;;;;;;;;;;;25.79;36.82;94439.19;5021461;28;9402;-56
2023/12/20 05:37:55;;;;;;;;;;;;;;;25.79;36.93;94433.69;5022025;28;7288;-56
2023/12/20 05:40:32;;;;;;;;;;;;;;;25.80;36.54;94441.44;5029563;28;7564;-56
2023/12/20 05:42:59;;;;;;;;;;;;;;;25.84;36.56;94441.91;5026636;28;7246;-56
2023/12/20 05:46:09;;;;;;;;;;;;;;;25.87;36.82;94443.66;5026366;28;7315;-56
2023/12/20 05:48:51;;;;;;;;;;;;;;;25.86;36.62;94436.63;5030393;28;7084;-56
2023/12/20 05:51:19;;;;;;;;;;;;;;;25.87;37.26;94443.66;5027493;28;7244;-56
2023/12/20 05:53:46;;;;;;;;;;;;;;;25.89;36.69;94437.63;5022612;28;8777;-56
2023/12/20 05:56:14;;;;;;;;;;;;;;;25.88;36.93;94434.13;5018305;28;7237;-56
2023/12/20 05:58:58;;;;;;;;;;;;;;;25.87;36.88;94429.13;5019751;28;8666;-56
2023/12/20 06:01:24;;;;;;;;;;;;;;;25.91;37.00;94440.63;5020078;28;7037;-56
2023/12/20 06:03:52;;;;;;;;;;;;;;;25.93;36.56;94443.59;5033509;28;7257;-56
2023/12/20 06:06:27;;;;;;;;;;;;;;;25.92;36.08;94448.38;5016893;28;7014;-56
2023/12/20 06:09:05;;;;;;;;;;;;;;;25.93;36.34;94452.63;5024940;28;7162;-56
2023/12/20 06:11:38;;;;;;;;;;;;;;;25.94;36.52;94462.41;5017838;28;7115;-56
2023/12/20 06:14:16;;;;;;;;;;;;;;;25.90;36.07;94448.13;5027673;28;7115;-56
2023/12/20 06:16:43;;;;;;;;;;;;;;;25.87;36.29;94449.16;5021241;28;7203;-55
2023/12/20 06:19:10;;;;;;;;;;;;;;;25.88;35.63;94442.38;5020100;28;8750;-55
2023/12/20 06:21:43;;;;;;;;;;;;;;;25.89;36.28;94432.88;5027648;28;7320;-55
2023/12/20 06:24:27;;;;;;;;;;;;;;;25.84;35.86;94441.16;5026307;28;7240;-55
2023/12/20 06:26:55;;;;;;;;;;;;;;;25.87;35.75;94451.16;5023445;28;7461;-55
2023/12/20 06:29:21;;;;;;;;;;;;;;;25.87;36.43;94446.41;5027414;28;7215;-56
2023/12/20 06:32:13;;;;;;;;;;;;;;;25.89;36.54;94451.41;5032964;28;7794;-56
2023/12/20 06:34:41;;;;;;;;;;;;;;;25.87;36.02;94451.16;4949838;28;7521;-56
2023/12/20 06:37:08;;;;;;;;;;;;;;;25.83;36.10;94454.19;4970247;28;8580;-55
2023/12/20 06:39:35;;;;;;;;;;;;;;;25.84;36.39;94458.44;4951680;28;6865;-56
2023/12/20 06:42:02;;;;;;;;;;;;;;;25.86;36.34;94464.19;4966431;28;9515;-56
2023/12/20 06:44:31;;;;;;;;;;;;;;;25.85;36.28;94465.47;4962471;28;7421;-56
2023/12/20 06:47:17;;;;;;;;;;;;;;;25.82;36.01;94457.44;4952012;28;6989;-56
2023/12/20 06:49:43;;;;;;;;;;;;;;;25.83;36.55;94453.44;4963257;28;7597;-56
2023/12/20 06:52:10;;;;;;;;;;;;;;;25.85;36.47;94459.94;4964698;28;7604;-55
2023/12/20 06:54:40;;;;;;;;;;;;;;;25.85;36.54;94459.94;4969804;28;9268;-56
2023/12/20 06:57:19;;;;;;;;;;;;;;;25.86;36.35;94471.72;4966355;28;8135;-55
2023/12/20 06:59:45;;;;;;;;;;;;;;;25.84;36.42;94476.97;4959234;28;7185;-55
2023/12/20 07:02:11;;;;;;;;;;;;;;;25.86;36.75;94461.44;4959197;28;7263;-56
2023/12/20 07:04:41;;;;;;;;;;;;;;;25.91;36.83;94473.69;4966901;28;7456;-56
2023/12/20 07:07:07;;;;;;;;;;;;;;;25.88;36.29;94477.47;4962347;28;7193;-55
2023/12/20 07:09:33;;;;;;;;;;;;;;;25.89;36.80;94479.72;4964757;28;7953;-56
2023/12/20 07:12:00;;;;;;;;;;;;;;;25.89;36.24;94487.22;4995420;28;8910;-56
2023/12/20 07:14:31;;;;;;;;;;;;;;;25.89;36.78;94482.47;5021071;28;6992;-56
2023/12/20 07:17:04;;;;;;;;;;;;;;;25.85;36.31;94481.25;5033546;28;8091;-55
2023/12/20 07:19:31;;;;;;;;;;;;;;;25.86;36.24;94464.19;5034255;28;8923;-56
2023/12/20 07:21:58;;;;;;;;;;;;;;;25.87;36.29;94475.97;5017297;28;7307;-55
2023/12/20 07:24:25;;;;;;;;;;;;;;;25.83;36.12;94473.50;5019193;28;7112;-55
2023/12/20 07:26:51;;;;;;;;;;;;;;;25.85;36.07;94487.50;5035359;28;7551;-64
2023/12/20 07:29:20;;;;;;;;;;;;;;;25.85;36.97;94486.75;5022111;28;7291;-63
2023/12/20 07:31:48;;;;;;;;;;;;;;;25.89;37.03;94482.47;5017470;28;8435;-63
2023/12/20 07:34:24;;;;;;;;;;;;;;;25.90;36.25;94480.47;5031686;28;7612;-63
2023/12/20 07:36:54;;;;;;;;;;;;;;;25.89;36.65;94481.72;5035229;28;7264;-63
2023/12/20 07:39:21;;;;;;;;;;;;;;;25.91;36.72;94490.22;5036811;28;9125;-63
2023/12/20 07:41:47;;;;;;;;;;;;;;;25.91;36.93;94496.47;5024107;28;8771;-63
2023/12/20 07:44:13;;;;;;;;;;;;;;;25.89;36.22;94499.00;5029040;28;7469;-63
2023/12/20 07:46:40;;;;;;;;;;;;;;;25.90;36.77;94503.22;5019662;28;7211;-63
2023/12/20 07:49:11;;;;;;;;;;;;;;;25.88;36.26;94497.50;5026655;28;7021;-63
2023/12/20 07:51:39;;;;;;;;;;;;;;;25.88;36.97;94507.78;5020241;28;8931;-63
2023/12/20 07:54:05;;;;;;;;;;;;;;;25.87;36.26;94506.28;5023778;28;8197;-63
2023/12/20 07:56:31;;;;;;;;;;;;;;;25.89;37.15;94507.28;5040323;28;7849;-63
2023/12/20 07:58:58;;;;;;;;;;;;;;;25.90;37.20;94511.50;5033470;28;7053;-64
2023/12/20 08:01:36;;;;;;;;;;;;;;;25.90;36.93;94525.28;5018251;28;9136;-63
2023/12/20 08:04:04;;;;;;;;;;;;;;;25.92;36.37;94514.53;5036562;28;9422;-64
2023/12/20 08:06:37;;;;;;;;;;;;;;;25.91;37.26;94532.31;5025965;28;7234;-63
2023/12/20 08:09:04;;;;;;;;;;;;;;;25.88;37.20;94536.06;5031715;28;9142;-64
2023/12/20 08:11:41;;;;;;;;;;;;;;;25.88;37.14;94535.34;5039876;28;9243;-63
2023/12/20 08:14:07;;;;;;;;;;;;;;;25.89;36.44;94548.59;5013547;28;7039;-63
2023/12/20 08:16:35;;;;;;;;;;;;;;;25.87;37.35;94537.34;5048745;28;6986;-64
2023/12/20 08:19:32;;;;;;;;;;;;;;;25.89;37.33;94539.56;5019044;28;7199;-64
2023/12/20 08:22:00;;;;;;;;;;;;;;;25.87;36.75;94542.84;4969634;28;8292;-63
2023/12/20 08:24:29;;;;;;;;;;;;;;;25.88;36.49;94541.56;4966622;28;7238;-64
2023/12/20 08:27:05;;;;;;;;;;;;;;;25.90;36.68;94539.06;4976655;28;7145;-63
2023/12/20 08:29:35;;;;;;;;;;;;;;;25.90;37.18;94533.56;4972336;28;7238;-63
2023/12/20 08:32:06;;;;;;;;;;;;;;;25.89;37.29;94532.06;4973956;28;7211;-64
2023/12/20 08:34:54;;;;;;;;;;;;;;;25.89;37.24;94536.81;4970248;28;9409;-63
2023/12/20 08:37:32;;;;;;;;;;;;;;;25.90;36.65;94521.81;4971638;28;7477;-63
2023/12/20 08:40:20;;;;;;;;;;;;;;;25.86;36.72;94522.06;4955814;28;7202;-63
2023/12/20 08:42:47;;;;;;;;;;;;;;;25.81;36.62;94520.09;4960402;28;7055;-63
2023/12/20 08:45:22;;;;;;;;;;;;;;;25.84;36.63;94527.31;4965590;28;8749;-62
2023/12/20 08:47:59;;;;;;;;;;;;;;;25.83;37.03;94528.59;4965219;28;8918;-63
2023/12/20 08:50:26;;;;;;;;;;;;;;;25.84;36.43;94535.59;4972727;28;9053;-63
2023/12/20 08:53:01;;;;;;;;;;;;;;;25.83;36.84;94536.09;4973432;28;7358;-63
2023/12/20 08:55:28;;;;;;;;;;;;;;;25.86;36.56;94540.63;4985632;28;7004;-63
2023/12/20 08:58:01;;;;;;;;;;;;;;;25.87;36.87;94537.34;4991403;28;7051;-63
2023/12/20 09:00:33;;;;;;;;;;;;;;;25.87;36.63;94534.59;5028853;28;7246;-63
2023/12/20 09:03:01;;;;;;;;;;;;;;;25.87;36.93;94534.59;5029603;28;7242;-63
2023/12/20 09:05:30;;;;;;;;;;;;;;;25.85;36.64;94528.84;5027150;28;7208;-62
2023/12/20 09:08:07;;;;;;;;;;;;;;;25.82;36.75;94527.09;5038823;28;7331;-63
2023/12/20 09:10:35;;;;;;;;;;;;;;;25.82;37.45;94529.09;5031677;28;7254;-63
2023/12/20 09:13:07;;;;;;;;;;;;;;;25.82;37.35;94527.09;5037826;28;9098;-63
2023/12/20 09:15:38;;;;;;;;;;;;;;;25.85;36.94;94523.31;5026157;28;6930;-63
2023/12/20 09:18:05;;;;;;;;;;;;;;;25.87;36.79;94539.34;5018391;28;7214;-63
2023/12/20 09:20:31;;;;;;;;;;;;;;;25.83;36.73;94527.84;5026891;28;7164;-64
2023/12/20 09:22:59;;;;;;;;;;;;;;;25.86;36.83;94535.09;5033516;28;6992;-63
2023/12/20 09:25:30;;;;;;;;;;;;;;;25.85;37.00;94528.84;5018021;28;7950;-63
2023/12/20 09:28:07;;;;;;;;;;;;;;;25.86;36.60;94529.59;5023248;28;7120;-64
2023/12/20 09:30:39;;;;;;;;;;;;;;;25.86;36.91;94527.56;5033623;28;7228;-63
2023/12/20 09:33:08;;;;;;;;;;;;;;;25.95;37.11;94540.28;5016989;28;7216;-64
2023/12/20 09:35:35;;;;;;;;;;;;;;;26.06;36.54;94532.72;5039505;28;9341;-64
2023/12/20 09:38:03;;;;;;;;;;;;;;;26.10;36.80;94533.22;5024890;28;9216;-64
2023/12/20 09:40:33;;;;;;;;;;;;;;;26.11;36.25;94531.22;5025053;28;7248;-64
2023/12/20 09:43:15;;;;;;;;;;;;;;;26.10;36.71;94537.97;5018205;28;8079;-64
2023/12/20 09:45:45;;;;;;;;;;;;;;;26.12;36.73;94544.47;5028813;28;7095;-65
2023/12/20 09:48:30;;;;;;;;;;;;;;;26.11;36.88;94543.00;5031954;28;7141;-65
2023/12/20 09:50:56;;;;;;;;;;;;;;;26.15;36.25;94548.97;5030017;28;9525;-65
2023/12/20 09:53:38;;;;;;;;;;;;;;;26.16;36.54;94555.25;5018704;28;9554;-65
2023/12/20 09:56:06;;;;;;;;;;;;;;;26.11;36.06;94543.00;5021043;28;7974;-65
2023/12/20 09:58:59;;;;;;;;;;;;;;;26.09;36.75;94551.03;5031137;28;7179;-66
2023/12/20 10:01:28;;;;;;;;;;;;;;;26.07;36.81;94547.25;5026799;28;7200;-65
2023/12/20 10:04:27;;;;;;;;;;;;;;;26.04;36.31;94534.47;5027980;28;7092;-65
2023/12/20 10:07:29;;;;;;;;;;;;;;;26.04;36.21;94537.25;4994190;28;7271;-65
2023/12/20 10:10:26;;;;;;;;;;;;;;;26.02;37.07;94535.00;5010294;28;9031;-65
2023/12/20 10:13:24;;;;;;;;;;;;;;;26.01;36.45;94539.00;4957874;28;7837;-65
2023/12/20 10:16:02;;;;;;;;;;;;;;;25.97;37.28;94538.53;4959525;28;8715;-64
2023/12/20 10:18:31;;;;;;;;;;;;;;;26.00;36.47;94550.53;4978430;28;7073;-64
2023/12/20 10:20:58;;;;;;;;;;;;;;;26.01;36.63;94549.31;4969739;28;7047;-64
2023/12/20 10:23:24;;;;;;;;;;;;;;;25.99;36.78;94544.28;4970901;28;7069;-64
2023/12/20 10:26:00;;;;;;;;;;;;;;;25.99;37.20;94536.00;4987027;28;7206;-64
2023/12/20 10:28:42;;;;;;;;;;;;;;;25.98;37.15;94540.03;4984686;28;7224;-65
2023/12/20 10:31:08;;;;;;;;;;;;;;;25.97;36.56;94533.00;4971908;28;7329;-64
2023/12/20 10:33:36;;;;;;;;;;;;;;;25.99;37.21;94521.50;4954052;28;8802;-64
2023/12/20 10:36:03;;;;;;;;;;;;;;;25.95;36.67;94527.28;4972229;28;9435;-64
2023/12/20 10:38:42;;;;;;;;;;;;;;;25.92;36.75;94522.78;4987907;28;8078;-64
2023/12/20 10:41:10;;;;;;;;;;;;;;;25.94;36.91;94516.75;4968330;28;7266;-64
2023/12/20 10:43:45;;;;;;;;;;;;;;;25.97;36.83;94510.22;4977627;28;7142;-64
2023/12/20 10:46:21;;;;;;;;;;;;;;;25.94;37.24;94505.75;4986296;28;7121;-65
2023/12/20 10:48:50;;;;;;;;;;;;;;;25.95;37.23;94513.50;5002736;28;7050;-64
2023/12/20 10:51:18;;;;;;;;;;;;;;;25.93;37.02;94504.22;5035324;28;6991;-64
2023/12/20 10:53:47;;;;;;;;;;;;;;;25.92;36.91;94500.00;5013283;28;8744;-64
2023/12/20 10:56:19;;;;;;;;;;;;;;;25.94;36.67;94494.72;5022554;28;7818;-61
2023/12/20 10:58:46;;;;;;;;;;;;;;;25.90;36.79;94488.72;5008779;28;7017;-62
2023/12/20 11:01:23;;;;;;;;;;;;;;;25.91;37.55;94487.47;5042718;28;7192;-62
2023/12/20 11:03:59;;;;;;;;;;;;;;;25.82;38.03;94488.50;5040352;28;7364;-61
2023/12/20 11:06:47;;;;;;;;;;;;;;;25.82;37.96;94488.50;5028829;28;7127;-62
2023/12/20 11:09:43;;;;;;;;;;;;;;;25.80;38.42;94487.53;5024932;28;9336;-61
2023/12/20 11:12:15;;;;;;;;;;;;;;;25.78;39.25;94477.03;5026710;28;6971;-62
2023/12/20 11:14:52;;;;;;;;;;;;;;;25.73;38.64;94483.31;5027577;28;7536;-62
2023/12/20 11:17:18;;;;;;;;;;;;;;;25.73;38.94;94477.78;5020072;28;7566;-62
2023/12/20 11:19:55;;;;;;;;;;;;;;;25.75;39.10;94472.53;5028381;28;7256;-62
2023/12/20 11:22:22;;;;;;;;;;;;;;;25.74;38.45;94470.28;5031373;28;7386;-62
2023/12/20 11:24:51;;;;;;;;;;;;;;;25.80;38.53;94462.72;5029151;28;7163;-62
2023/12/20 11:27:19;;;;;;;;;;;;;;;25.84;38.28;94469.47;5023346;28;7100;-62
2023/12/20 11:30:01;;;;;;;;;;;;;;;25.85;38.53;94470.22;5035289;28;9093;-62
2023/12/20 11:32:29;;;;;;;;;;;;;;;25.88;37.99;94463.69;5030888;28;7599;-63
2023/12/20 11:35:00;;;;;;;;;;;;;;;25.88;38.96;94464.41;5031871;28;7172;-61
2023/12/20 11:37:37;;;;;;;;;;;;;;;25.89;38.77;94457.66;5027755;28;7224;-62
2023/12/20 11:40:09;;;;;;;;;;;;;;;25.86;38.31;94460.72;5021067;28;7747;-62
2023/12/20 11:42:44;;;;;;;;;;;;;;;25.91;38.84;94466.16;5028806;28;7103;-62
2023/12/20 11:45:17;;;;;;;;;;;;;;;25.92;38.02;94469.69;5029906;28;8766;-61
2023/12/20 11:47:46;;;;;;;;;;;;;;;25.93;38.48;94465.66;5018044;28;7165;-61
2023/12/20 11:50:14;;;;;;;;;;;;;;;25.93;38.77;94466.41;5015784;28;6986;-62
2023/12/20 11:52:40;;;;;;;;;;;;;;;25.92;38.63;94459.41;5024705;28;7277;-62
2023/12/20 11:55:09;;;;;;;;;;;;;;;25.93;38.41;94460.88;5012273;28;7187;-63
2023/12/20 11:57:36;;;;;;;;;;;;;;;25.93;37.71;94460.88;5026565;28;7255;-62
2023/12/20 12:00:04;;;;;;;;;;;;;;;25.94;38.13;94456.13;5016273;28;7926;-62
2023/12/20 12:02:36;;;;;;;;;;;;;;;25.97;37.97;94455.09;5028444;28;7124;-62
2023/12/20 12:05:05;;;;;;;;;;;;;;;25.99;37.91;94463.63;5024800;28;9297;-62
2023/12/20 12:07:35;;;;;;;;;;;;;;;26.00;38.57;94462.34;5017003;28;8472;-62
2023/12/20 12:10:03;;;;;;;;;;;;;;;26.03;38.59;94466.84;5005928;28;6994;-63
2023/12/20 12:12:32;;;;;;;;;;;;;;;26.02;38.41;94463.34;5019476;28;7175;-63
2023/12/20 12:14:58;;;;;;;;;;;;;;;25.99;38.31;94458.84;5019629;28;7538;-63
2023/12/20 12:17:24;;;;;;;;;;;;;;;25.99;38.13;94453.31;5023552;28;7982;-62
2023/12/20 12:19:51;;;;;;;;;;;;;;;26.01;37.10;94455.59;5014360;28;7251;-62
2023/12/20 12:22:26;;;;;;;;;;;;;;;25.99;37.61;94452.59;5016774;28;9806;-62
2023/12/20 12:24:52;;;;;;;;;;;;;;;25.99;36.65;94449.84;5012894;28;7172;-62
2023/12/20 12:27:18;;;;;;;;;;;;;;;26.01;36.62;94452.84;5007459;28;7332;-62
2023/12/20 12:30:07;;;;;;;;;;;;;;;26.03;37.04;94453.78;5017144;28;7198;-62
2023/12/20 12:32:35;;;;;;;;;;;;;;;26.02;37.35;94457.06;5021441;28;7661;-62
2023/12/20 12:35:06;;;;;;;;;;;;;;;26.02;37.07;94460.59;5024303;28;7082;-62
2023/12/20 12:37:35;;;;;;;;;;;;;;;26.00;36.72;94454.84;5015776;28;7845;-62
2023/12/20 12:40:01;;;;;;;;;;;;;;;26.00;37.13;94443.81;5032323;28;7486;-62
2023/12/20 12:42:28;;;;;;;;;;;;;;;25.97;37.15;94461.34;5022357;28;8460;-62
2023/12/20 12:44:59;;;;;;;;;;;;;;;26.00;36.50;94454.09;5027254;28;7142;-62
2023/12/20 12:47:28;;;;;;;;;;;;;;;25.98;36.76;94456.59;5032673;28;7202;-62
2023/12/20 12:49:58;;;;;;;;;;;;;;;25.95;37.21;94454.84;5017899;28;7321;-62
2023/12/20 12:52:26;;;;;;;;;;;;;;;25.94;36.55;94465.16;5029888;28;7477;-62
2023/12/20 12:54:55;;;;;;;;;;;;;;;25.99;36.49;94469.13;5024123;28;6997;-62
2023/12/20 12:57:24;;;;;;;;;;;;;;;25.99;36.90;94474.66;5019152;28;7026;-62
2023/12/20 12:59:50;;;;;;;;;;;;;;;25.99;36.42;94469.13;5020992;28;9053;-62
2023/12/20 13:02:16;;;;;;;;;;;;;;;25.97;36.63;94477.91;5024747;28;7202;-62
2023/12/20 13:04:44;;;;;;;;;;;;;;;25.93;36.29;94471.91;5021141;28;7800;-62
2023/12/20 13:07:20;;;;;;;;;;;;;;;25.95;36.44;94480.41;5026022;28;9061;-62
2023/12/20 13:09:48;;;;;;;;;;;;;;;25.91;37.26;94479.94;5012117;28;7038;-63
2023/12/20 13:12:14;;;;;;;;;;;;;;;25.94;37.05;94473.44;5030434;28;6996;-62
2023/12/20 13:14:40;;;;;;;;;;;;;;;25.91;36.38;94468.91;5027552;28;6975;-62
2023/12/20 13:17:06;;;;;;;;;;;;;;;25.91;37.12;94468.91;5027319;28;8968;-65
2023/12/20 13:19:35;;;;;;;;;;;;;;;25.93;37.21;94466.41;5030044;28;7267;-65
2023/12/20 13:22:01;;;;;;;;;;;;;;;25.95;36.98;94469.41;5022835;28;8961;-65
2023/12/20 13:24:34;;;;;;;;;;;;;;;25.93;36.59;94460.88;5040746;28;8958;-65